createdAt,value
2022-10-23T00:00:55.035Z,100.00
2022-10-23T00:02:27.908Z,100.00
2022-10-23T00:04:21.982Z,100.00
2022-10-23T00:05:54.826Z,100.00
2022-10-23T00:07:27.570Z,100.00
2022-10-23T00:09:01.379Z,100.00
2022-10-23T00:10:34.597Z,100.00
2022-10-23T00:12:07.656Z,100.00
2022-10-23T00:13:41.190Z,100.00
2022-10-23T00:15:15.022Z,100.00
2022-10-23T00:16:48.041Z,100.00
2022-10-23T00:18:20.880Z,100.00
2022-10-23T00:19:53.834Z,100.00
2022-10-23T00:21:27.548Z,100.00
2022-10-23T00:23:00.722Z,100.00
2022-10-23T00:24:33.657Z,100.00
2022-10-23T00:26:08.560Z,100.00
2022-10-23T00:27:41.445Z,100.00
2022-10-23T00:29:14.943Z,100.00
2022-10-23T00:30:47.959Z,100.00
2022-10-23T00:32:21.977Z,100.00
2022-10-23T00:33:55.157Z,100.00
2022-10-23T00:35:28.270Z,100.00
2022-10-23T00:37:01.403Z,100.00
2022-10-23T00:38:35.722Z,100.00
2022-10-23T00:40:09.637Z,100.00
2022-10-23T00:41:43.408Z,100.00
2022-10-23T00:43:25.964Z,100.00
2022-10-23T00:45:19.269Z,100.00
2022-10-23T00:46:52.340Z,100.00
2022-10-23T00:48:27.575Z,100.00
2022-10-23T00:50:02.123Z,100.00
2022-10-23T00:51:50.785Z,100.00
2022-10-23T00:53:24.731Z,100.00
2022-10-23T00:54:58.695Z,100.00
2022-10-23T00:56:34.095Z,100.00
2022-10-23T00:58:07.390Z,100.00
2022-10-23T00:59:40.618Z,100.00
2022-10-23T01:01:22.699Z,100.00
2022-10-23T01:02:57.765Z,100.00
2022-10-23T01:04:31.399Z,100.00
2022-10-23T01:06:15.036Z,100.00
2022-10-23T01:07:52.325Z,100.00
2022-10-23T01:09:51.911Z,100.00
2022-10-23T01:11:59.565Z,100.00
2022-10-23T01:13:45.301Z,100.00
2022-10-23T01:15:26.557Z,100.00
2022-10-23T01:17:14.998Z,100.00
2022-10-23T01:18:53.875Z,100.00
2022-10-23T01:20:50.899Z,100.00
2022-10-23T01:22:32.797Z,100.00
2022-10-23T01:24:30.204Z,100.00
2022-10-23T01:26:19.667Z,100.00
2022-10-23T01:28:02.137Z,100.00
2022-10-23T01:29:44.343Z,100.00
2022-10-23T01:31:24.104Z,100.00
2022-10-23T01:33:08.808Z,100.00
2022-10-23T01:35:09.711Z,100.00
2022-10-23T01:36:48.049Z,100.00
2022-10-23T01:38:36.255Z,100.00
2022-10-23T01:40:57.953Z,100.00
2022-10-23T01:42:36.854Z,100.00
2022-10-23T01:44:22.615Z,100.00
2022-10-23T01:46:00.875Z,100.00
2022-10-23T01:47:36.501Z,100.00
2022-10-23T01:49:14.609Z,100.00
2022-10-23T01:50:51.111Z,100.00
2022-10-23T01:52:24.844Z,100.00
2022-10-23T01:54:01.238Z,100.00
2022-10-23T01:55:34.619Z,100.00
2022-10-23T01:57:13.541Z,100.00
2022-10-23T01:58:50.647Z,100.00
2022-10-23T02:00:23.854Z,100.00
2022-10-23T02:01:59.885Z,100.00
2022-10-23T02:03:36.445Z,100.00
2022-10-23T02:05:15.340Z,100.00
2022-10-23T02:06:48.326Z,100.00
2022-10-23T02:08:21.486Z,100.00
2022-10-23T02:09:54.781Z,100.00
2022-10-23T02:11:27.880Z,100.00
2022-10-23T02:13:12.898Z,100.00
2022-10-23T02:15:22.033Z,100.00
2022-10-23T02:16:58.414Z,100.00
2022-10-23T02:18:46.429Z,100.00
2022-10-23T02:20:55.578Z,100.00
2022-10-23T02:22:34.002Z,100.00
2022-10-23T02:24:16.415Z,100.00
2022-10-23T02:25:57.100Z,100.00
2022-10-23T02:27:40.649Z,100.00
2022-10-23T02:29:41.008Z,100.00
2022-10-23T02:31:18.113Z,100.00
2022-10-23T02:32:54.137Z,100.00
2022-10-23T02:34:28.062Z,100.00
2022-10-23T02:36:01.142Z,100.00
2022-10-23T02:37:35.100Z,100.00
2022-10-23T02:39:10.171Z,100.00
2022-10-23T02:40:45.759Z,100.00
2022-10-23T02:42:24.052Z,100.00
2022-10-23T02:44:45.442Z,100.00
2022-10-23T02:46:46.990Z,100.00
2022-10-23T02:48:39.047Z,100.00
2022-10-23T02:50:33.486Z,100.00
2022-10-23T02:52:20.224Z,100.00
2022-10-23T02:53:59.326Z,100.00
2022-10-23T02:55:39.609Z,100.00
2022-10-23T02:57:21.570Z,100.00
2022-10-23T02:59:11.406Z,100.00
2022-10-23T03:00:52.771Z,100.00
2022-10-23T03:02:40.129Z,100.00
2022-10-23T03:04:16.487Z,100.00
2022-10-23T03:05:49.909Z,100.00
2022-10-23T03:07:23.243Z,100.00
2022-10-23T03:09:04.697Z,100.00
2022-10-23T03:10:37.900Z,100.00
2022-10-23T03:12:12.377Z,100.00
2022-10-23T03:13:45.588Z,100.00
2022-10-23T03:15:18.812Z,100.00
2022-10-23T03:16:54.261Z,100.00
2022-10-23T03:18:27.185Z,100.00
2022-10-23T03:20:05.113Z,100.00
2022-10-23T03:21:38.142Z,100.00
2022-10-23T03:23:14.374Z,100.00
2022-10-23T03:24:48.728Z,100.00
2022-10-23T03:26:21.650Z,100.00
2022-10-23T03:27:54.530Z,100.00
2022-10-23T03:29:27.675Z,100.00
2022-10-23T03:31:02.496Z,100.00
2022-10-23T03:32:35.462Z,100.00
2022-10-23T03:34:11.576Z,100.00
2022-10-23T03:37:26.392Z,100.00
2022-10-23T03:39:00.559Z,100.00
2022-10-23T03:40:33.829Z,100.00
2022-10-23T03:42:07.017Z,100.00
2022-10-23T03:43:40.464Z,100.00
2022-10-23T03:45:13.556Z,100.00
2022-10-23T03:46:46.491Z,100.00
2022-10-23T03:48:19.796Z,100.00
2022-10-23T03:49:52.946Z,100.00
2022-10-23T03:51:26.812Z,100.00
2022-10-23T03:52:59.631Z,100.00
2022-10-23T03:54:34.018Z,100.00
2022-10-23T03:56:07.129Z,100.00
2022-10-23T03:57:40.126Z,100.00
2022-10-23T03:59:13.178Z,100.00
2022-10-23T04:00:45.950Z,100.00
2022-10-23T04:02:19.132Z,100.00
2022-10-23T04:03:52.361Z,100.00
2022-10-23T04:05:25.357Z,100.00
2022-10-23T04:07:01.570Z,100.00
2022-10-23T04:08:34.775Z,100.00
2022-10-23T04:10:10.044Z,99.11
2022-10-23T04:11:43.166Z,94.59
2022-10-23T04:13:16.345Z,90.38
2022-10-23T04:14:49.586Z,84.37
2022-10-23T04:16:22.524Z,82.68
2022-10-23T04:17:55.445Z,80.72
2022-10-23T04:19:28.458Z,78.08
2022-10-23T04:21:02.347Z,78.90
2022-10-23T04:22:35.021Z,76.04
2022-10-23T04:24:08.152Z,71.03
2022-10-23T04:25:41.036Z,69.07
2022-10-23T04:27:15.379Z,69.24
2022-10-23T04:28:48.707Z,66.04
2022-10-23T04:30:22.214Z,63.80
2022-10-23T04:31:55.766Z,62.10
2022-10-23T04:33:28.651Z,60.78
2022-10-23T04:35:01.485Z,59.84
2022-10-23T04:36:36.437Z,59.17
2022-10-23T04:38:18.172Z,57.00
2022-10-23T04:39:50.925Z,54.94
2022-10-23T04:41:24.361Z,55.43
2022-10-23T04:42:57.607Z,54.17
2022-10-23T04:44:30.688Z,51.37
2022-10-23T04:46:03.912Z,51.42
2022-10-23T04:47:36.984Z,54.18
2022-10-23T04:49:10.390Z,55.25
2022-10-23T04:50:57.103Z,53.79
2022-10-23T04:52:42.054Z,51.56
2022-10-23T04:54:38.233Z,52.10
2022-10-23T04:56:29.685Z,50.78
2022-10-23T04:58:12.340Z,49.21
2022-10-23T04:59:45.370Z,49.84
2022-10-23T05:01:18.535Z,49.37
2022-10-23T05:02:53.740Z,50.07
2022-10-23T05:04:27.625Z,49.11
2022-10-23T05:06:19.234Z,46.30
2022-10-23T05:07:58.925Z,46.71
2022-10-23T05:09:54.775Z,46.87
2022-10-23T05:11:56.969Z,48.26
2022-10-23T05:13:30.203Z,47.23
2022-10-23T05:15:03.106Z,47.26
2022-10-23T05:16:46.939Z,45.69
2022-10-23T05:18:36.310Z,42.33
2022-10-23T05:20:14.843Z,43.06
2022-10-23T05:21:52.697Z,43.35
2022-10-23T05:23:27.573Z,41.47
2022-10-23T05:25:05.872Z,42.41
2022-10-23T05:26:40.475Z,41.98
2022-10-23T05:28:14.407Z,41.22
2022-10-23T05:29:47.317Z,40.47
2022-10-23T05:31:23.705Z,39.84
2022-10-23T05:32:56.790Z,39.43
2022-10-23T05:34:35.386Z,38.26
2022-10-23T05:36:10.074Z,39.37
2022-10-23T05:37:45.686Z,38.36
2022-10-23T05:39:25.076Z,38.94
2022-10-23T05:40:59.208Z,40.06
2022-10-23T05:42:34.446Z,39.43
2022-10-23T05:44:09.088Z,38.86
2022-10-23T05:46:04.541Z,39.29
2022-10-23T05:47:37.284Z,38.58
2022-10-23T05:49:26.801Z,40.24
2022-10-23T05:51:22.644Z,40.29
2022-10-23T05:53:21.416Z,41.70
2022-10-23T05:55:07.545Z,42.53
2022-10-23T05:57:03.786Z,41.14
2022-10-23T05:58:49.753Z,39.67
2022-10-23T06:00:34.312Z,39.86
2022-10-23T06:02:27.678Z,38.31
2022-10-23T06:04:10.443Z,39.07
2022-10-23T06:06:01.659Z,39.36
2022-10-23T06:07:46.605Z,39.61
2022-10-23T06:09:19.718Z,40.47
2022-10-23T06:10:54.157Z,40.14
2022-10-23T06:12:27.183Z,39.93
2022-10-23T06:14:01.376Z,40.06
2022-10-23T06:15:34.645Z,41.76
2022-10-23T06:17:16.111Z,41.29
2022-10-23T06:18:51.477Z,41.86
2022-10-23T06:20:27.893Z,44.98
2022-10-23T06:22:11.580Z,46.67
2022-10-23T06:23:58.753Z,47.83
2022-10-23T06:25:56.185Z,47.99
2022-10-23T06:27:37.954Z,48.29
2022-10-23T06:29:11.739Z,48.46
2022-10-23T06:30:47.047Z,50.87
2022-10-23T06:32:20.391Z,51.54
2022-10-23T06:34:06.516Z,52.26
2022-10-23T06:35:39.387Z,52.54
2022-10-23T06:37:12.377Z,54.03
2022-10-23T06:38:56.732Z,54.50
2022-10-23T06:40:47.794Z,55.68
2022-10-23T06:42:27.886Z,56.06
2022-10-23T06:44:00.827Z,56.39
2022-10-23T06:45:54.040Z,58.07
2022-10-23T06:48:02.124Z,59.62
2022-10-23T06:50:01.571Z,59.61
2022-10-23T06:51:35.600Z,62.72
2022-10-23T06:53:10.081Z,63.06
2022-10-23T06:54:46.704Z,63.56
2022-10-23T06:56:29.674Z,64.48
2022-10-23T06:58:03.756Z,64.22
2022-10-23T06:59:37.221Z,65.54
2022-10-23T07:01:16.633Z,64.85
2022-10-23T07:02:52.261Z,66.57
2022-10-23T07:04:25.660Z,66.29
2022-10-23T07:06:04.120Z,67.27
2022-10-23T07:07:37.712Z,66.78
2022-10-23T07:09:11.327Z,66.57
2022-10-23T07:11:06.473Z,65.99
2022-10-23T07:12:41.228Z,66.51
2022-10-23T07:14:33.302Z,67.83
2022-10-23T07:16:20.730Z,67.67
2022-10-23T07:17:54.652Z,67.72
2022-10-23T07:19:30.205Z,68.07
2022-10-23T07:21:06.911Z,67.70
2022-10-23T07:22:40.250Z,67.37
2022-10-23T07:24:17.780Z,67.67
2022-10-23T07:25:50.859Z,68.09
2022-10-23T07:27:29.061Z,67.75
2022-10-23T07:29:04.371Z,67.27
2022-10-23T07:30:41.035Z,66.37
2022-10-23T07:32:16.316Z,66.30
2022-10-23T07:34:08.145Z,66.12
2022-10-23T07:35:41.575Z,65.24
2022-10-23T07:37:18.829Z,65.34
2022-10-23T07:38:52.317Z,66.08
2022-10-23T07:40:29.562Z,66.90
2022-10-23T07:42:03.645Z,66.17
2022-10-23T07:43:37.292Z,67.13
2022-10-23T07:45:11.164Z,66.14
2022-10-23T07:46:46.884Z,66.80
2022-10-23T07:48:21.543Z,65.78
2022-10-23T07:50:04.509Z,63.50
2022-10-23T07:51:40.095Z,63.59
2022-10-23T07:53:23.321Z,64.39
2022-10-23T07:55:00.741Z,64.08
2022-10-23T07:56:37.430Z,64.67
2022-10-23T07:58:16.352Z,63.99
2022-10-23T07:59:52.301Z,64.77
2022-10-23T08:01:33.290Z,64.63
2022-10-23T08:03:06.601Z,64.39
2022-10-23T08:04:40.097Z,64.48
2022-10-23T08:06:35.741Z,64.01
2022-10-23T08:08:08.695Z,63.72
2022-10-23T08:09:44.651Z,64.87
2022-10-23T08:11:25.264Z,64.84
2022-10-23T08:12:58.811Z,63.38
2022-10-23T08:14:51.628Z,64.33
2022-10-23T08:16:24.924Z,63.07
2022-10-23T08:18:10.234Z,63.13
2022-10-23T08:19:49.004Z,61.70
2022-10-23T08:21:24.885Z,62.80
2022-10-23T08:22:59.402Z,62.15
2022-10-23T08:24:33.815Z,62.23
2022-10-23T08:26:07.954Z,63.81
2022-10-23T08:27:41.639Z,63.50
2022-10-23T08:29:15.141Z,64.05
2022-10-23T08:30:48.406Z,64.43
2022-10-23T08:32:21.291Z,63.69
2022-10-23T08:34:00.608Z,63.49
2022-10-23T08:35:37.668Z,62.54
2022-10-23T08:37:11.712Z,62.74
2022-10-23T08:38:45.136Z,63.17
2022-10-23T08:40:25.596Z,61.64
2022-10-23T08:42:32.424Z,62.48
2022-10-23T08:44:46.130Z,62.04
2022-10-23T08:46:26.763Z,61.66
2022-10-23T08:48:45.421Z,62.27
2022-10-23T08:50:47.242Z,62.72
2022-10-23T08:52:22.999Z,61.14
2022-10-23T08:54:26.996Z,60.79
2022-10-23T08:56:07.778Z,62.87
2022-10-23T08:57:51.453Z,62.65
2022-10-23T08:59:52.937Z,62.03
2022-10-23T09:01:42.274Z,62.08
2022-10-23T09:03:16.184Z,62.41
2022-10-23T09:04:52.454Z,63.58
2022-10-23T09:06:38.320Z,63.73
2022-10-23T09:08:26.391Z,61.94
2022-10-23T09:10:26.222Z,62.31
2022-10-23T09:12:17.977Z,63.19
2022-10-23T09:13:56.249Z,63.11
2022-10-23T09:15:40.939Z,63.84
2022-10-23T09:17:24.789Z,63.65
2022-10-23T09:18:58.708Z,63.68
2022-10-23T09:20:36.537Z,63.08
2022-10-23T09:22:11.777Z,62.06
2022-10-23T09:23:45.134Z,60.85
2022-10-23T09:25:23.719Z,62.02
2022-10-23T09:26:56.724Z,62.95
2022-10-23T09:28:36.543Z,63.68
2022-10-23T09:30:10.003Z,63.63
2022-10-23T09:31:55.509Z,63.47
2022-10-23T09:33:28.652Z,63.26
2022-10-23T09:35:01.500Z,62.49
2022-10-23T09:36:35.466Z,63.38
2022-10-23T09:38:27.677Z,62.17
2022-10-23T09:40:12.617Z,62.66
2022-10-23T09:41:46.212Z,61.22
2022-10-23T09:43:26.141Z,61.17
2022-10-23T09:45:02.065Z,59.87
2022-10-23T09:46:43.562Z,58.54
2022-10-23T09:48:19.571Z,57.35
2022-10-23T09:49:56.675Z,57.84
2022-10-23T09:51:29.660Z,57.78
2022-10-23T09:53:02.357Z,56.13
2022-10-23T09:54:45.159Z,55.30
2022-10-23T09:56:24.798Z,54.49
2022-10-23T09:57:58.057Z,55.72
2022-10-23T09:59:31.501Z,55.32
2022-10-23T10:01:05.570Z,55.82
2022-10-23T10:03:02.017Z,56.21
2022-10-23T10:04:42.042Z,56.51
2022-10-23T10:06:32.678Z,56.71
2022-10-23T10:08:20.613Z,56.07
2022-10-23T10:09:55.062Z,57.01
2022-10-23T10:11:46.082Z,57.84
2022-10-23T10:13:18.771Z,56.84
2022-10-23T10:15:12.602Z,57.31
2022-10-23T10:16:51.309Z,57.04
2022-10-23T10:18:36.002Z,57.76
2022-10-23T10:20:38.688Z,56.17
2022-10-23T10:22:17.696Z,56.61
2022-10-23T10:24:12.849Z,57.35
2022-10-23T10:25:57.640Z,57.00
2022-10-23T10:28:08.702Z,56.41
2022-10-23T10:29:53.349Z,56.86
2022-10-23T10:31:53.075Z,55.32
2022-10-23T10:33:43.930Z,55.21
2022-10-23T10:35:19.627Z,57.44
2022-10-23T10:36:58.383Z,56.74
2022-10-23T10:38:46.473Z,54.96
2022-10-23T10:40:53.231Z,55.66
2022-10-23T10:42:36.477Z,54.53
2022-10-23T10:44:23.237Z,54.19
2022-10-23T10:46:28.373Z,54.13
2022-10-23T10:48:21.436Z,54.47
2022-10-23T10:50:58.190Z,52.96
2022-10-23T10:53:15.151Z,53.05
2022-10-23T10:55:18.089Z,53.31
2022-10-23T10:57:11.344Z,54.45
2022-10-23T10:58:55.610Z,53.87
2022-10-23T11:00:31.818Z,54.85
2022-10-23T11:02:33.470Z,53.84
2022-10-23T11:04:22.728Z,53.31
2022-10-23T11:07:39.125Z,53.40
2022-10-23T11:09:21.093Z,54.18
2022-10-23T11:11:01.869Z,52.93
2022-10-23T11:12:34.721Z,54.20
2022-10-23T11:14:16.296Z,53.37
2022-10-23T11:15:49.888Z,53.34
2022-10-23T11:17:41.135Z,54.16
2022-10-23T11:19:24.935Z,53.30
2022-10-23T11:21:24.030Z,54.21
2022-10-23T11:23:15.399Z,53.89
2022-10-23T11:25:25.406Z,54.05
2022-10-23T11:27:09.507Z,53.78
2022-10-23T11:29:31.647Z,55.04
2022-10-23T11:31:36.693Z,55.88
2022-10-23T11:33:45.044Z,55.61
2022-10-23T11:35:31.003Z,55.70
2022-10-23T11:37:05.407Z,55.88
2022-10-23T11:38:40.854Z,56.21
2022-10-23T11:40:22.836Z,56.44
2022-10-23T11:42:12.106Z,57.96
2022-10-23T11:43:52.649Z,56.97
2022-10-23T11:45:35.984Z,55.89
2022-10-23T11:47:40.343Z,57.88
2022-10-23T11:49:22.591Z,57.42
2022-10-23T11:50:55.853Z,57.50
2022-10-23T11:52:28.748Z,59.43
2022-10-23T11:54:13.972Z,59.00
2022-10-23T11:56:07.175Z,59.14
2022-10-23T11:57:40.097Z,59.06
2022-10-23T11:59:31.029Z,59.44
2022-10-23T12:01:21.547Z,58.71
2022-10-23T12:02:59.028Z,59.16
2022-10-23T12:04:53.185Z,60.44
2022-10-23T12:06:31.622Z,60.42
2022-10-23T12:08:08.223Z,61.07
2022-10-23T12:09:44.316Z,61.55
2022-10-23T12:11:48.516Z,62.31
2022-10-23T12:13:44.953Z,62.67
2022-10-23T12:15:21.870Z,63.29
2022-10-23T12:16:55.040Z,63.04
2022-10-23T12:18:27.951Z,63.91
2022-10-23T12:20:13.521Z,65.02
2022-10-23T12:21:47.243Z,64.37
2022-10-23T12:24:00.650Z,65.57
2022-10-23T12:25:45.354Z,66.60
2022-10-23T12:27:24.502Z,67.22
2022-10-23T12:29:20.590Z,67.62
2022-10-23T12:31:32.062Z,66.65
2022-10-23T12:33:16.895Z,66.49
2022-10-23T12:35:17.679Z,67.69
2022-10-23T12:37:22.583Z,67.81
2022-10-23T12:38:58.842Z,68.80
2022-10-23T12:40:32.127Z,68.40
2022-10-23T12:42:11.524Z,68.95
2022-10-23T12:43:52.117Z,69.10
2022-10-23T12:45:37.197Z,68.77
2022-10-23T12:47:21.698Z,70.36
2022-10-23T12:48:57.052Z,69.84
2022-10-23T12:50:32.687Z,70.41
2022-10-23T12:52:15.847Z,70.36
2022-10-23T12:53:51.859Z,70.38
2022-10-23T12:55:28.825Z,71.42
2022-10-23T12:57:29.320Z,71.40
2022-10-23T12:59:04.193Z,72.00
2022-10-23T13:00:37.076Z,73.25
2022-10-23T13:02:26.236Z,73.88
2022-10-23T13:04:07.778Z,74.80
2022-10-23T13:05:40.758Z,75.84
2022-10-23T13:07:13.919Z,75.67
2022-10-23T13:08:48.795Z,77.08
2022-10-23T13:10:40.580Z,77.04
2022-10-23T13:12:37.023Z,78.20
2022-10-23T13:14:13.904Z,78.47
2022-10-23T13:15:47.202Z,79.17
2022-10-23T13:17:20.116Z,79.41
2022-10-23T13:18:54.629Z,80.37
2022-10-23T13:20:35.417Z,80.60
2022-10-23T13:22:26.523Z,81.05
2022-10-23T13:23:59.518Z,81.68
2022-10-23T13:25:34.442Z,81.52
2022-10-23T13:27:33.230Z,82.24
2022-10-23T13:29:20.134Z,82.60
2022-10-23T13:31:10.759Z,82.99
2022-10-23T13:32:44.774Z,84.34
2022-10-23T13:34:19.986Z,83.95
2022-10-23T13:36:01.105Z,84.30
2022-10-23T13:37:34.162Z,84.55
2022-10-23T13:39:09.944Z,85.36
2022-10-23T13:40:43.232Z,85.48
2022-10-23T13:42:16.627Z,84.93
2022-10-23T13:43:49.508Z,86.29
2022-10-23T13:45:25.131Z,86.45
2022-10-23T13:46:58.113Z,86.25
2022-10-23T13:48:31.620Z,86.91
2022-10-23T13:50:06.762Z,87.02
2022-10-23T13:51:52.220Z,87.86
2022-10-23T13:53:25.177Z,88.54
2022-10-23T13:54:57.807Z,88.79
2022-10-23T13:56:30.657Z,88.76
2022-10-23T13:58:03.910Z,89.09
2022-10-23T13:59:36.849Z,89.13
2022-10-23T14:01:28.483Z,90.08
2022-10-23T14:03:01.314Z,89.90
2022-10-23T14:04:34.258Z,89.88
2022-10-23T14:06:07.223Z,90.21
2022-10-23T14:07:40.261Z,90.41
2022-10-23T14:09:18.736Z,91.05
2022-10-23T14:10:51.858Z,91.31
2022-10-23T14:12:24.704Z,91.48
2022-10-23T14:13:57.376Z,91.58
2022-10-23T14:15:30.179Z,92.13
2022-10-23T14:17:03.093Z,92.83
2022-10-23T14:18:35.985Z,92.95
2022-10-23T14:20:09.073Z,94.07
2022-10-23T14:21:41.959Z,93.72
2022-10-23T14:23:14.766Z,93.95
2022-10-23T14:24:47.637Z,93.96
2022-10-23T14:26:23.986Z,94.29
2022-10-23T14:27:57.047Z,94.94
2022-10-23T14:29:30.372Z,95.21
2022-10-23T14:31:15.650Z,95.56
2022-10-23T14:32:50.213Z,95.59
2022-10-23T14:34:23.363Z,95.82
2022-10-23T14:35:56.636Z,95.92
2022-10-23T14:37:31.437Z,96.70
2022-10-23T14:39:05.050Z,96.55
2022-10-23T14:40:38.972Z,97.21
2022-10-23T14:42:13.461Z,97.53
2022-10-23T14:43:46.315Z,97.18
2022-10-23T14:45:18.924Z,97.20
2022-10-23T14:46:52.360Z,97.56
2022-10-23T14:48:25.770Z,97.54
2022-10-23T14:49:58.897Z,97.78
2022-10-23T14:51:31.997Z,98.30
2022-10-23T14:53:05.079Z,99.76
2022-10-23T14:54:38.340Z,99.24
2022-10-23T14:56:11.792Z,99.75
2022-10-23T14:57:45.176Z,99.55
2022-10-23T14:59:18.432Z,100.00
2022-10-23T15:00:58.990Z,100.00
2022-10-23T15:02:31.964Z,100.00
2022-10-23T15:04:04.847Z,100.00
2022-10-23T15:05:43.160Z,100.00
2022-10-23T15:07:16.256Z,100.00
2022-10-23T15:08:57.013Z,100.00
2022-10-23T15:10:30.135Z,100.00
2022-10-23T15:12:04.885Z,100.00
2022-10-23T15:13:38.141Z,100.00
2022-10-23T15:15:11.124Z,100.00
2022-10-23T15:16:44.254Z,100.00
2022-10-23T15:18:22.152Z,100.00
2022-10-23T15:19:55.463Z,100.00
2022-10-23T15:21:28.236Z,100.00
2022-10-23T15:23:01.704Z,100.00
2022-10-23T15:24:34.691Z,100.00
2022-10-23T15:26:10.714Z,100.00
2022-10-23T15:27:44.153Z,100.00
2022-10-23T15:29:18.069Z,100.00
2022-10-23T15:30:51.213Z,100.00
2022-10-23T15:32:24.066Z,100.00
2022-10-23T15:33:58.285Z,100.00
2022-10-23T15:35:32.291Z,100.00
2022-10-23T15:37:05.586Z,100.00
2022-10-23T15:38:38.719Z,100.00
2022-10-23T15:40:12.087Z,100.00
2022-10-23T15:41:45.867Z,100.00
2022-10-23T15:43:18.766Z,100.00
2022-10-23T15:44:51.555Z,100.00
2022-10-23T15:46:24.380Z,100.00
2022-10-23T15:47:57.207Z,100.00
2022-10-23T15:49:31.258Z,100.00
2022-10-23T15:51:04.419Z,100.00
2022-10-23T15:52:40.302Z,100.00
2022-10-23T15:54:19.325Z,100.00
2022-10-23T15:55:52.363Z,100.00
2022-10-23T15:57:27.258Z,100.00
2022-10-23T15:59:00.313Z,100.00
2022-10-23T16:00:36.486Z,100.00
2022-10-23T16:02:11.951Z,100.00
2022-10-23T16:03:45.354Z,100.00
2022-10-23T16:05:18.280Z,100.00
2022-10-23T16:06:51.086Z,100.00
2022-10-23T16:08:24.384Z,100.00
2022-10-23T16:09:57.922Z,100.00
2022-10-23T16:11:34.295Z,100.00
2022-10-23T16:13:07.104Z,100.00
2022-10-23T16:14:40.295Z,100.00
2022-10-23T16:16:14.386Z,100.00
2022-10-23T16:17:47.516Z,100.00
2022-10-23T16:19:20.371Z,100.00
2022-10-23T16:20:55.294Z,100.00
2022-10-23T16:22:28.656Z,100.00
2022-10-23T16:24:02.726Z,100.00
2022-10-23T16:25:39.440Z,100.00
2022-10-23T16:27:13.637Z,100.00
2022-10-23T16:28:47.547Z,100.00
2022-10-23T16:30:22.812Z,100.00
2022-10-23T16:31:57.284Z,100.00
2022-10-23T16:33:30.147Z,100.00
2022-10-23T16:35:03.325Z,100.00
2022-10-23T16:36:47.191Z,100.00
2022-10-23T16:38:25.866Z,100.00
2022-10-23T16:39:58.939Z,100.00
2022-10-23T16:41:50.515Z,100.00
2022-10-23T16:43:24.144Z,100.00
2022-10-23T16:45:10.968Z,100.00
2022-10-23T16:46:45.073Z,100.00
2022-10-23T16:48:18.150Z,100.00
2022-10-23T16:49:50.988Z,100.00
2022-10-23T16:51:25.094Z,100.00
2022-10-23T16:52:58.141Z,100.00
2022-10-23T16:54:31.244Z,100.00
2022-10-23T16:56:06.062Z,100.00
2022-10-23T16:57:38.898Z,100.00
2022-10-23T16:59:12.146Z,100.00
2022-10-23T17:00:45.457Z,100.00
2022-10-23T17:02:18.399Z,100.00
2022-10-23T17:03:52.562Z,100.00
2022-10-23T17:05:25.423Z,100.00
2022-10-23T17:06:58.250Z,100.00
2022-10-23T17:08:31.593Z,100.00
2022-10-23T17:10:05.038Z,100.00
2022-10-23T17:11:40.016Z,100.00
2022-10-23T17:13:13.278Z,100.00
2022-10-23T17:14:46.102Z,100.00
2022-10-23T17:16:23.960Z,100.00
2022-10-23T17:17:58.209Z,100.00
2022-10-23T17:19:44.173Z,100.00
2022-10-23T17:21:21.238Z,100.00
2022-10-23T17:22:54.074Z,100.00
2022-10-23T17:24:26.862Z,100.00
2022-10-23T17:26:00.921Z,100.00
2022-10-23T17:27:33.845Z,100.00
2022-10-23T17:29:09.332Z,100.00
2022-10-23T17:30:42.088Z,100.00
2022-10-23T17:32:15.113Z,100.00
2022-10-23T17:33:49.806Z,100.00
2022-10-23T17:35:22.782Z,100.00
2022-10-23T17:36:55.569Z,100.00
2022-10-23T17:38:28.639Z,100.00
2022-10-23T17:40:02.778Z,100.00
2022-10-23T17:41:36.884Z,100.00
2022-10-23T17:43:09.658Z,100.00
2022-10-23T17:44:42.769Z,100.00
2022-10-23T17:46:16.501Z,100.00
2022-10-23T17:47:49.948Z,100.00
2022-10-23T17:49:24.415Z,100.00
2022-10-23T17:51:06.010Z,100.00
2022-10-23T17:52:39.363Z,100.00
2022-10-23T17:54:12.707Z,100.00
2022-10-23T17:55:45.528Z,100.00
2022-10-23T17:57:18.337Z,100.00
2022-10-23T17:58:53.167Z,100.00
2022-10-23T18:00:38.908Z,100.00
2022-10-23T18:02:13.406Z,100.00
2022-10-23T18:03:46.600Z,100.00
2022-10-23T18:05:19.391Z,100.00
2022-10-23T18:06:53.793Z,100.00
2022-10-23T18:08:26.590Z,100.00
2022-10-23T18:09:59.362Z,100.00
2022-10-23T18:11:38.380Z,100.00
2022-10-23T18:13:11.280Z,100.00
2022-10-23T18:14:44.400Z,100.00
2022-10-23T18:16:18.290Z,100.00
2022-10-23T18:17:51.330Z,100.00
2022-10-23T18:19:24.084Z,100.00
2022-10-23T18:21:01.138Z,100.00
2022-10-23T18:22:34.315Z,100.00
2022-10-23T18:24:07.213Z,100.00
2022-10-23T18:25:43.734Z,100.00
2022-10-23T18:27:16.773Z,100.00
2022-10-23T18:28:52.187Z,100.00
2022-10-23T18:30:25.218Z,100.00
2022-10-23T18:31:57.899Z,100.00
2022-10-23T18:33:30.932Z,100.00
2022-10-23T18:35:04.432Z,100.00
2022-10-23T18:36:39.770Z,100.00
2022-10-23T18:38:13.868Z,100.00
2022-10-23T18:39:46.926Z,100.00
2022-10-23T18:41:20.700Z,100.00
2022-10-23T18:42:53.219Z,100.00
2022-10-23T18:44:29.307Z,100.00
2022-10-23T18:46:02.225Z,100.00
2022-10-23T18:47:35.159Z,100.00
2022-10-23T18:49:08.042Z,100.00
2022-10-23T18:50:40.917Z,100.00
2022-10-23T18:52:13.838Z,100.00
2022-10-23T18:53:47.550Z,100.00
2022-10-23T18:55:20.775Z,100.00
2022-10-23T18:56:53.835Z,100.00
2022-10-23T18:58:26.927Z,100.00
2022-10-23T19:00:15.490Z,100.00
2022-10-23T19:01:48.835Z,100.00
2022-10-23T19:03:21.875Z,100.00
2022-10-23T19:04:54.629Z,100.00
2022-10-23T19:06:28.478Z,100.00
2022-10-23T19:08:01.407Z,100.00
2022-10-23T19:09:34.277Z,100.00
2022-10-23T19:11:08.309Z,100.00
2022-10-23T19:12:41.511Z,100.00
2022-10-23T19:14:14.552Z,100.00
2022-10-23T19:15:47.536Z,100.00
2022-10-23T19:17:22.857Z,100.00
2022-10-23T19:19:05.829Z,100.00
2022-10-23T19:20:38.829Z,100.00
2022-10-23T19:22:12.231Z,100.00
2022-10-23T19:23:45.503Z,100.00
2022-10-23T19:25:22.110Z,100.00
2022-10-23T19:26:55.101Z,100.00
2022-10-23T19:28:28.278Z,100.00
2022-10-23T19:30:06.511Z,100.00
2022-10-23T19:31:43.563Z,100.00
2022-10-23T19:33:16.447Z,100.00
2022-10-23T19:34:49.291Z,100.00
2022-10-23T19:36:23.557Z,100.00
2022-10-23T19:37:56.912Z,100.00
2022-10-23T19:39:29.936Z,100.00
2022-10-23T19:41:04.133Z,100.00
2022-10-23T19:42:39.144Z,100.00
2022-10-23T19:44:13.507Z,100.00
2022-10-23T19:45:46.335Z,100.00
2022-10-23T19:47:19.211Z,100.00
2022-10-23T19:48:51.946Z,100.00
2022-10-23T19:50:25.038Z,100.00
2022-10-23T19:51:57.950Z,100.00
2022-10-23T19:53:30.649Z,100.00
2022-10-23T19:55:05.502Z,100.00
2022-10-23T19:56:38.733Z,100.00
2022-10-23T19:58:11.590Z,100.00
2022-10-23T19:59:49.474Z,100.00
2022-10-23T20:01:24.640Z,100.00
2022-10-23T20:02:57.786Z,100.00
2022-10-23T20:04:30.679Z,100.00
2022-10-23T20:06:03.639Z,100.00
2022-10-23T20:07:37.431Z,100.00
2022-10-23T20:09:10.577Z,100.00
2022-10-23T20:10:44.478Z,100.00
2022-10-23T20:12:17.559Z,100.00
2022-10-23T20:13:50.894Z,100.00
2022-10-23T20:15:23.972Z,100.00
2022-10-23T20:16:56.786Z,100.00
2022-10-23T20:18:29.978Z,100.00
2022-10-23T20:20:02.779Z,100.00
2022-10-23T20:21:37.573Z,100.00
2022-10-23T20:23:10.430Z,100.00
2022-10-23T20:24:43.407Z,100.00
2022-10-23T20:26:19.495Z,100.00
2022-10-23T20:27:52.424Z,100.00
2022-10-23T20:29:25.831Z,100.00
2022-10-23T20:30:58.743Z,100.00
2022-10-23T20:32:31.649Z,100.00
2022-10-23T20:34:04.400Z,100.00
2022-10-23T20:35:41.926Z,100.00
2022-10-23T20:37:14.693Z,100.00
2022-10-23T20:38:47.481Z,100.00
2022-10-23T20:40:20.799Z,100.00
2022-10-23T20:41:55.697Z,100.00
2022-10-23T20:43:28.895Z,100.00
2022-10-23T20:45:03.730Z,100.00
2022-10-23T20:46:37.470Z,100.00
2022-10-23T20:48:10.452Z,100.00
2022-10-23T20:49:43.125Z,100.00
2022-10-23T20:51:18.985Z,100.00
2022-10-23T20:52:52.516Z,100.00
2022-10-23T20:54:27.141Z,100.00